Wind From: 11-12-2017 04:25 Until: 16:00 warning for: Wind Level: Orange info button

Power and phone distribution networks may be disrupted for relatively long periods., Roofs and chimneys can be damaged. , Tree branches may break. , Vehicles can be deported. , Traffic may be disrupted, particularly on secondary roads in forest areas. Limit your trips. , Limit your speed in highway driving, especially if you drive a vehicle or hitch sensitive to wind. , Do not go for walks in forests or along the coast., In town, be vigilant against possible falling objects., Do not work on roofs and do not touch any electrical line fallen on the ground., Store or secure sensitive objects to wind or likely to be damaged., Always install power generators outside buildings. 


Meteo18 Weather Cam more information Meteo18 Weather Cam


Thunder radar more information blitzortung!


Rain radar more information rain snow radar


Visit our other weather sites:

Template documentation
and downloads

And another site



Weather Underground History page Text

Daily Summary for April 5, 2017 Units:  Both    English   Metric
« Previous Day
Next Day »
Daily Weekly Monthly Yearly Custom
  High: Low: Average:
Temperature: 58.8 °F /  14.9 °C 46 °F /  7.8 °C 51.6 °F /  10.9 °C
Dew Point: 47.1 °F /  8.4 °C 42.1 °F /  5.6 °C 44.6 °F /  7 °C
Humidity: 93 % 56 % 78 %
Wind Speed: 16 mph /  25.7 km/h - 5.9 mph /  9.5 km/h
Wind Gust: 23 mph /  37.0 km/h - -
Wind:- - South
Pressure: 30.4 in /  1027.7 hPa 30.3 in /  1024.6 hPa -
Precipitation: 0 in /  0.0 mm    
Historical Graphs
 
 
Tabular Data for April 5, 2017
Time Temperature Dew Point Pressure Wind Wind Speed Wind Gust Humidity Rainfall Rate (Hourly)
00:02 54 °F /  12.2 °C 46.2 °F /  7.9 °C 30.3 in /  1024.6 hPa NNE 5 mph /  8.0 km/h 14 mph /  22.5 km/h 75 % 0 in /  0.0 mm
00:07 54 °F /  12.2 °C 46.2 °F /  7.9 °C 30.3 in /  1024.9 hPa North 14 mph /  22.5 km/h 14 mph /  22.5 km/h 75 % 0 in /  0.0 mm
00:12 53.8 °F /  12.1 °C 46 °F /  7.8 °C 30.3 in /  1024.6 hPa West 1 mph /  1.6 km/h 15 mph /  24.1 km/h 75 % 0 in /  0.0 mm
00:17 53.4 °F /  11.9 °C 45.7 °F /  7.6 °C 30.3 in /  1024.6 hPa NNE 6 mph /  9.7 km/h 15 mph /  24.1 km/h 75 % 0 in /  0.0 mm
00:22 53.4 °F /  11.9 °C 46 °F /  7.8 °C 30.3 in /  1024.9 hPa NNW 5 mph /  8.0 km/h 14 mph /  22.5 km/h 76 % 0 in /  0.0 mm
00:27 53.2 °F /  11.8 °C 45.9 °F /  7.7 °C 30.3 in /  1024.9 hPa NNE 10 mph /  16.1 km/h 14 mph /  22.5 km/h 76 % 0 in /  0.0 mm
00:32 53.1 °F /  11.7 °C 45.7 °F /  7.6 °C 30.3 in /  1024.6 hPa NW 10 mph /  16.1 km/h 14 mph /  22.5 km/h 76 % 0 in /  0.0 mm
00:42 52.9 °F /  11.6 °C 45.9 °F /  7.7 °C 30.3 in /  1024.6 hPa NNE 7 mph /  11.3 km/h 16 mph /  25.7 km/h 77 % 0 in /  0.0 mm
00:47 52.5 °F /  11.4 °C 45.5 °F /  7.5 °C 30.3 in /  1024.6 hPa NNE 4 mph /  6.4 km/h 16 mph /  25.7 km/h 77 % 0 in /  0.0 mm
00:52 52.3 °F /  11.3 °C 45.7 °F /  7.6 °C 30.3 in /  1024.6 hPa NNW 6 mph /  9.7 km/h 14 mph /  22.5 km/h 78 % 0 in /  0.0 mm
00:57 52.2 °F /  11.2 °C 45.5 °F /  7.5 °C 30.3 in /  1024.6 hPa NNW 3 mph /  4.8 km/h 14 mph /  22.5 km/h 78 % 0 in /  0.0 mm
01:02 52.2 °F /  11.2 °C 45.9 °F /  7.7 °C 30.3 in /  1024.6 hPa NW 7 mph /  11.3 km/h 16 mph /  25.7 km/h 79 % 0 in /  0.0 mm
01:07 52 °F /  11.1 °C 45.7 °F /  7.6 °C 30.3 in /  1024.6 hPa NE 6 mph /  9.7 km/h 16 mph /  25.7 km/h 79 % 0 in /  0.0 mm
01:12 51.6 °F /  10.9 °C 45.7 °F /  7.6 °C 30.3 in /  1024.9 hPa NNE 3 mph /  4.8 km/h 16 mph /  25.7 km/h 80 % 0 in /  0.0 mm
01:17 51.4 °F /  10.8 °C 45.5 °F /  7.5 °C 30.3 in /  1024.9 hPa North 3 mph /  4.8 km/h 16 mph /  25.7 km/h 80 % 0 in /  0.0 mm
01:22 51.3 °F /  10.7 °C 45.7 °F /  7.6 °C 30.3 in /  1024.9 hPa North 6 mph /  9.7 km/h 16 mph /  25.7 km/h 81 % 0 in /  0.0 mm
01:32 50.9 °F /  10.5 °C 45.3 °F /  7.4 °C 30.3 in /  1024.6 hPa North 5 mph /  8.0 km/h 14 mph /  22.5 km/h 81 % 0 in /  0.0 mm
01:37 50.7 °F /  10.4 °C 45.5 °F /  7.5 °C 30.3 in /  1024.6 hPa NNE 4 mph /  6.4 km/h 14 mph /  22.5 km/h 82 % 0 in /  0.0 mm
01:42 50.5 °F /  10.3 °C 45.3 °F /  7.4 °C 30.3 in /  1024.6 hPa NNE 8 mph /  12.9 km/h 14 mph /  22.5 km/h 82 % 0 in /  0.0 mm
01:47 50.4 °F /  10.2 °C 45.3 °F /  7.4 °C 30.3 in /  1024.6 hPa NNW 5 mph /  8.0 km/h 14 mph /  22.5 km/h 83 % 0 in /  0.0 mm
01:57 50.2 °F /  10.1 °C 45.1 °F /  7.3 °C 30.3 in /  1024.6 hPa NE 5 mph /  8.0 km/h 15 mph /  24.1 km/h 83 % 0 in /  0.0 mm
02:02 50 °F /  10.0 °C 45.3 °F /  7.4 °C 30.3 in /  1024.6 hPa NNE 6 mph /  9.7 km/h 15 mph /  24.1 km/h 84 % 0 in /  0.0 mm
02:07 49.8 °F /  9.9 °C 45.1 °F /  7.3 °C 30.3 in /  1024.6 hPa NNE 6 mph /  9.7 km/h 15 mph /  24.1 km/h 84 % 0 in /  0.0 mm
02:12 49.6 °F /  9.8 °C 45 °F /  7.2 °C 30.3 in /  1024.6 hPa North 6 mph /  9.7 km/h 15 mph /  24.1 km/h 84 % 0 in /  0.0 mm
02:17 49.6 °F /  9.8 °C 45.3 °F /  7.4 °C 30.3 in /  1024.9 hPa NNE 5 mph /  8.0 km/h 15 mph /  24.1 km/h 85 % 0 in /  0.0 mm
02:22 49.5 °F /  9.7 °C 45.1 °F /  7.3 °C 30.3 in /  1024.9 hPa North 5 mph /  8.0 km/h 16 mph /  25.7 km/h 85 % 0 in /  0.0 mm
02:27 49.3 °F /  9.6 °C 45.3 °F /  7.4 °C 30.3 in /  1024.9 hPa NNW 6 mph /  9.7 km/h 16 mph /  25.7 km/h 86 % 0 in /  0.0 mm
02:32 49.3 °F /  9.6 °C 45.3 °F /  7.4 °C 30.3 in /  1024.9 hPa NE 5 mph /  8.0 km/h 11 mph /  17.7 km/h 86 % 0 in /  0.0 mm
02:37 48.9 °F /  9.4 °C 45 °F /  7.2 °C 30.3 in /  1024.9 hPa NNW 2 mph /  3.2 km/h 11 mph /  17.7 km/h 86 % 0 in /  0.0 mm
02:42 48.7 °F /  9.3 °C 45 °F /  7.2 °C 30.3 in /  1024.9 hPa NW 2 mph /  3.2 km/h 10 mph /  16.1 km/h 87 % 0 in /  0.0 mm
02:47 48.7 °F /  9.3 °C 45 °F /  7.2 °C 30.3 in /  1024.9 hPa West 1 mph /  1.6 km/h 7 mph /  11.3 km/h 87 % 0 in /  0.0 mm
02:52 48.6 °F /  9.2 °C 44.8 °F /  7.1 °C 30.3 in /  1024.9 hPa North 1 mph /  1.6 km/h 7 mph /  11.3 km/h 87 % 0 in /  0.0 mm
02:57 48.4 °F /  9.1 °C 44.8 °F /  7.1 °C 30.3 in /  1024.9 hPa Calm   6 mph /  9.7 km/h 87 % 0 in /  0.0 mm
03:02 48 °F /  8.9 °C 44.6 °F /  7.0 °C 30.3 in /  1024.9 hPa Calm   4 mph /  6.4 km/h 88 % 0 in /  0.0 mm
03:07 48 °F /  8.9 °C 44.6 °F /  7.0 °C 30.3 in /  1024.9 hPa WNW 1 mph /  1.6 km/h 3 mph /  4.8 km/h 88 % 0 in /  0.0 mm
03:12 47.7 °F /  8.7 °C 44.2 °F /  6.8 °C 30.3 in /  1024.9 hPa WSW 1 mph /  1.6 km/h 3 mph /  4.8 km/h 88 % 0 in /  0.0 mm
03:17 47.5 °F /  8.6 °C 44.1 °F /  6.7 °C 30.3 in /  1024.9 hPa Calm   3 mph /  4.8 km/h 88 % 0 in /  0.0 mm
03:22 47.5 °F /  8.6 °C 44.4 °F /  6.9 °C 30.3 in /  1024.9 hPa Calm   3 mph /  4.8 km/h 89 % 0 in /  0.0 mm
03:27 47.1 °F /  8.4 °C 44.1 °F /  6.7 °C 30.3 in /  1024.9 hPa West 1 mph /  1.6 km/h 1 mph /  1.6 km/h 89 % 0 in /  0.0 mm
03:32 47.1 °F /  8.4 °C 44.4 °F /  6.9 °C 30.3 in /  1024.9 hPa Calm   2 mph /  3.2 km/h 90 % 0 in /  0.0 mm
03:37 46.9 °F /  8.3 °C 43.9 °F /  6.6 °C 30.3 in /  1024.9 hPa Calm   2 mph /  3.2 km/h 89 % 0 in /  0.0 mm
03:42 46.9 °F /  8.3 °C 44.4 °F /  6.9 °C 30.3 in /  1024.9 hPa WNW 1 mph /  1.6 km/h 2 mph /  3.2 km/h 91 % 0 in /  0.0 mm
03:47 46.8 °F /  8.2 °C 44.1 °F /  6.7 °C 30.3 in /  1024.9 hPa Calm   2 mph /  3.2 km/h 90 % 0 in /  0.0 mm
03:52 46.6 °F /  8.1 °C 44.1 °F /  6.7 °C 30.3 in /  1024.9 hPa NNW 2 mph /  3.2 km/h 3 mph /  4.8 km/h 91 % 0 in /  0.0 mm
03:57 46.6 °F /  8.1 °C 44.1 °F /  6.7 °C 30.3 in /  1024.9 hPa North 3 mph /  4.8 km/h 4 mph /  6.4 km/h 91 % 0 in /  0.0 mm
04:02 46.6 °F /  8.1 °C 44.1 °F /  6.7 °C 30.3 in /  1024.9 hPa WNW 1 mph /  1.6 km/h 4 mph /  6.4 km/h 91 % 0 in /  0.0 mm
04:07 46.8 °F /  8.2 °C 44.2 °F /  6.8 °C 30.3 in /  1024.9 hPa WNW 1 mph /  1.6 km/h 4 mph /  6.4 km/h 91 % 0 in /  0.0 mm
04:12 46.6 °F /  8.1 °C 44.1 °F /  6.7 °C 30.3 in /  1024.9 hPa WNW 2 mph /  3.2 km/h 4 mph /  6.4 km/h 91 % 0 in /  0.0 mm
04:17 46.8 °F /  8.2 °C 44.6 °F /  7.0 °C 30.3 in /  1024.9 hPa West 1 mph /  1.6 km/h 4 mph /  6.4 km/h 92 % 0 in /  0.0 mm
04:22 46.9 °F /  8.3 °C 44.8 °F /  7.1 °C 30.3 in /  1024.9 hPa Calm   4 mph /  6.4 km/h 92 % 0 in /  0.0 mm
04:27 46.9 °F /  8.3 °C 44.8 °F /  7.1 °C 30.3 in /  1024.9 hPa NNW 1 mph /  1.6 km/h 4 mph /  6.4 km/h 92 % 0 in /  0.0 mm
04:32 47.1 °F /  8.4 °C 45 °F /  7.2 °C 30.3 in /  1024.9 hPa NNE 6 mph /  9.7 km/h 6 mph /  9.7 km/h 92 % 0 in /  0.0 mm
04:37 47.3 °F /  8.5 °C 45.1 °F /  7.3 °C 30.3 in /  1024.9 hPa NNW 7 mph /  11.3 km/h 15 mph /  24.1 km/h 92 % 0 in /  0.0 mm
04:42 47.3 °F /  8.5 °C 45.1 °F /  7.3 °C 30.3 in /  1024.9 hPa WNW 8 mph /  12.9 km/h 15 mph /  24.1 km/h 92 % 0 in /  0.0 mm
04:47 47.5 °F /  8.6 °C 45.3 °F /  7.4 °C 30.3 in /  1024.9 hPa North 4 mph /  6.4 km/h 15 mph /  24.1 km/h 92 % 0 in /  0.0 mm
04:52 47.3 °F /  8.5 °C 45.1 °F /  7.3 °C 30.3 in /  1024.9 hPa North 5 mph /  8.0 km/h 15 mph /  24.1 km/h 92 % 0 in /  0.0 mm
04:57 47.5 °F /  8.6 °C 45.5 °F /  7.5 °C 30.3 in /  1024.9 hPa North 10 mph /  16.1 km/h 11 mph /  17.7 km/h 93 % 0 in /  0.0 mm
05:02 47.5 °F /  8.6 °C 45.5 °F /  7.5 °C 30.3 in /  1024.9 hPa NNE 6 mph /  9.7 km/h 11 mph /  17.7 km/h 93 % 0 in /  0.0 mm
05:07 47.5 °F /  8.6 °C 45.5 °F /  7.5 °C 30.3 in /  1025.3 hPa NNW 6 mph /  9.7 km/h 10 mph /  16.1 km/h 93 % 0 in /  0.0 mm
05:12 47.5 °F /  8.6 °C 45.5 °F /  7.5 °C 30.3 in /  1024.9 hPa NNE 2 mph /  3.2 km/h 10 mph /  16.1 km/h 93 % 0 in /  0.0 mm
05:17 47.7 °F /  8.7 °C 45.5 °F /  7.5 °C 30.3 in /  1024.9 hPa North 5 mph /  8.0 km/h 9 mph /  14.5 km/h 92 % 0 in /  0.0 mm
05:22 47.7 °F /  8.7 °C 45.5 °F /  7.5 °C 30.3 in /  1024.9 hPa NNE 4 mph /  6.4 km/h 11 mph /  17.7 km/h 92 % 0 in /  0.0 mm
05:32 47.7 °F /  8.7 °C 45.5 °F /  7.5 °C 30.3 in /  1024.9 hPa NNW 8 mph /  12.9 km/h 11 mph /  17.7 km/h 92 % 0 in /  0.0 mm
05:37 47.7 °F /  8.7 °C 45.1 °F /  7.3 °C 30.3 in /  1024.9 hPa NW 4 mph /  6.4 km/h 12 mph /  19.3 km/h 91 % 0 in /  0.0 mm
05:42 47.7 °F /  8.7 °C 45.1 °F /  7.3 °C 30.3 in /  1024.9 hPa West 2 mph /  3.2 km/h 12 mph /  19.3 km/h 91 % 0 in /  0.0 mm
05:47 47.7 °F /  8.7 °C 45.1 °F /  7.3 °C 30.3 in /  1024.9 hPa NNW 3 mph /  4.8 km/h 10 mph /  16.1 km/h 91 % 0 in /  0.0 mm
05:52 47.7 °F /  8.7 °C 45.1 °F /  7.3 °C 30.3 in /  1024.9 hPa NNE 3 mph /  4.8 km/h 10 mph /  16.1 km/h 91 % 0 in /  0.0 mm
05:57 47.7 °F /  8.7 °C 45.1 °F /  7.3 °C 30.3 in /  1024.9 hPa NW 1 mph /  1.6 km/h 9 mph /  14.5 km/h 91 % 0 in /  0.0 mm
06:02 47.7 °F /  8.7 °C 45.1 °F /  7.3 °C 30.3 in /  1025.3 hPa NNW 2 mph /  3.2 km/h 12 mph /  19.3 km/h 91 % 0 in /  0.0 mm
06:07 47.7 °F /  8.7 °C 45.1 °F /  7.3 °C 30.3 in /  1025.3 hPa West 1 mph /  1.6 km/h 12 mph /  19.3 km/h 91 % 0 in /  0.0 mm
06:12 47.7 °F /  8.7 °C 45.1 °F /  7.3 °C 30.3 in /  1025.3 hPa North 3 mph /  4.8 km/h 12 mph /  19.3 km/h 91 % 0 in /  0.0 mm
06:17 47.7 °F /  8.7 °C 45.1 °F /  7.3 °C 30.3 in /  1025.3 hPa NNW 2 mph /  3.2 km/h 8 mph /  12.9 km/h 91 % 0 in /  0.0 mm
06:22 47.7 °F /  8.7 °C 45 °F /  7.2 °C 30.3 in /  1025.3 hPa NNW 8 mph /  12.9 km/h 8 mph /  12.9 km/h 90 % 0 in /  0.0 mm
06:27 47.7 °F /  8.7 °C 45 °F /  7.2 °C 30.3 in /  1025.3 hPa NNW 2 mph /  3.2 km/h 10 mph /  16.1 km/h 90 % 0 in /  0.0 mm
06:32 47.5 °F /  8.6 °C 44.8 °F /  7.1 °C 30.3 in /  1025.3 hPa NNW 3 mph /  4.8 km/h 10 mph /  16.1 km/h 90 % 0 in /  0.0 mm
06:37 47.1 °F /  8.4 °C 44.4 °F /  6.9 °C 30.3 in /  1025.3 hPa NW 2 mph /  3.2 km/h 12 mph /  19.3 km/h 90 % 0 in /  0.0 mm
06:42 46.9 °F /  8.3 °C 44.2 °F /  6.8 °C 30.3 in /  1025.3 hPa NNW 2 mph /  3.2 km/h 12 mph /  19.3 km/h 90 % 0 in /  0.0 mm
06:47 46.8 °F /  8.2 °C 44.1 °F /  6.7 °C 30.3 in /  1025.3 hPa WNW 1 mph /  1.6 km/h 12 mph /  19.3 km/h 90 % 0 in /  0.0 mm
06:52 46.6 °F /  8.1 °C 43.9 °F /  6.6 °C 30.3 in /  1025.3 hPa NNW 5 mph /  8.0 km/h 12 mph /  19.3 km/h 90 % 0 in /  0.0 mm
06:57 46.6 °F /  8.1 °C 43.9 °F /  6.6 °C 30.3 in /  1025.3 hPa NNW 4 mph /  6.4 km/h 10 mph /  16.1 km/h 90 % 0 in /  0.0 mm
07:02 46.2 °F /  7.9 °C 43.5 °F /  6.4 °C 30.3 in /  1025.3 hPa NNW 5 mph /  8.0 km/h 10 mph /  16.1 km/h 90 % 0 in /  0.0 mm
07:07 46.2 °F /  7.9 °C 43.7 °F /  6.5 °C 30.3 in /  1025.3 hPa North 4 mph /  6.4 km/h 9 mph /  14.5 km/h 91 % 0 in /  0.0 mm
07:12 46.2 °F /  7.9 °C 43.5 °F /  6.4 °C 30.3 in /  1025.3 hPa NNW 1 mph /  1.6 km/h 11 mph /  17.7 km/h 90 % 0 in /  0.0 mm
07:17 46 °F /  7.8 °C 43.5 °F /  6.4 °C 30.3 in /  1025.3 hPa NW 6 mph /  9.7 km/h 11 mph /  17.7 km/h 91 % 0 in /  0.0 mm
07:22 46.2 °F /  7.9 °C 43.7 °F /  6.5 °C 30.3 in /  1025.6 hPa ENE 2 mph /  3.2 km/h 11 mph /  17.7 km/h 91 % 0 in /  0.0 mm
07:37 46.6 °F /  8.1 °C 44.1 °F /  6.7 °C 30.3 in /  1025.6 hPa NNW 4 mph /  6.4 km/h 7 mph /  11.3 km/h 91 % 0 in /  0.0 mm
07:42 46.6 °F /  8.1 °C 44.1 °F /  6.7 °C 30.3 in /  1025.6 hPa NNE 3 mph /  4.8 km/h 10 mph /  16.1 km/h 91 % 0 in /  0.0 mm
07:52 46.6 °F /  8.1 °C 44.1 °F /  6.7 °C 30.3 in /  1025.6 hPa NNW 3 mph /  4.8 km/h 10 mph /  16.1 km/h 91 % 0 in /  0.0 mm
07:57 46.6 °F /  8.1 °C 43.9 °F /  6.6 °C 30.3 in /  1025.6 hPa NW 4 mph /  6.4 km/h 11 mph /  17.7 km/h 90 % 0 in /  0.0 mm
08:02 46.6 °F /  8.1 °C 43.9 °F /  6.6 °C 30.3 in /  1025.6 hPa NNW 6 mph /  9.7 km/h 11 mph /  17.7 km/h 90 % 0 in /  0.0 mm
08:07 46.4 °F /  8.0 °C 43.7 °F /  6.5 °C 30.3 in /  1025.6 hPa NNW 5 mph /  8.0 km/h 11 mph /  17.7 km/h 90 % 0 in /  0.0 mm
08:12 46.2 °F /  7.9 °C 43.7 °F /  6.5 °C 30.3 in /  1025.6 hPa NNW 3 mph /  4.8 km/h 10 mph /  16.1 km/h 91 % 0 in /  0.0 mm
08:17 46.2 °F /  7.9 °C 43.7 °F /  6.5 °C 30.3 in /  1025.6 hPa NNE 1 mph /  1.6 km/h 10 mph /  16.1 km/h 91 % 0 in /  0.0 mm
08:22 46.2 °F /  7.9 °C 43.7 °F /  6.5 °C 30.3 in /  1025.6 hPa NNW 3 mph /  4.8 km/h 9 mph /  14.5 km/h 91 % 0 in /  0.0 mm
08:27 46.2 °F /  7.9 °C 43.5 °F /  6.4 °C 30.3 in /  1025.6 hPa NW 4 mph /  6.4 km/h 7 mph /  11.3 km/h 90 % 0 in /  0.0 mm
08:32 46.2 °F /  7.9 °C 43.5 °F /  6.4 °C 30.3 in /  1026.0 hPa NW 6 mph /  9.7 km/h 9 mph /  14.5 km/h 90 % 0 in /  0.0 mm
08:37 46.2 °F /  7.9 °C 43.5 °F /  6.4 °C 30.3 in /  1026.0 hPa North 10 mph /  16.1 km/h 10 mph /  16.1 km/h 90 % 0 in /  0.0 mm
08:42 46.2 °F /  7.9 °C 43.5 °F /  6.4 °C 30.3 in /  1026.0 hPa North 8 mph /  12.9 km/h 12 mph /  19.3 km/h 90 % 0 in /  0.0 mm
08:47 46.2 °F /  7.9 °C 43.7 °F /  6.5 °C 30.3 in /  1026.0 hPa North 7 mph /  11.3 km/h 16 mph /  25.7 km/h 91 % 0 in /  0.0 mm
08:52 46.2 °F /  7.9 °C 43.5 °F /  6.4 °C 30.3 in /  1026.0 hPa NNE 10 mph /  16.1 km/h 16 mph /  25.7 km/h 90 % 0 in /  0.0 mm
08:57 46.2 °F /  7.9 °C 43.7 °F /  6.5 °C 30.3 in /  1026.0 hPa NNW 9 mph /  14.5 km/h 14 mph /  22.5 km/h 91 % 0 in /  0.0 mm
09:02 46.4 °F /  8.0 °C 43.9 °F /  6.6 °C 30.3 in /  1026.0 hPa NNW 6 mph /  9.7 km/h 13 mph /  20.9 km/h 91 % 0 in /  0.0 mm
09:07 46.4 °F /  8.0 °C 43.9 °F /  6.6 °C 30.3 in /  1026.0 hPa NNW 9 mph /  14.5 km/h 13 mph /  20.9 km/h 91 % 0 in /  0.0 mm
09:12 46.4 °F /  8.0 °C 43.9 °F /  6.6 °C 30.3 in /  1026.3 hPa NNW 2 mph /  3.2 km/h 12 mph /  19.3 km/h 91 % 0 in /  0.0 mm
09:17 46.2 °F /  7.9 °C 43.5 °F /  6.4 °C 30.3 in /  1026.3 hPa NNW 6 mph /  9.7 km/h 12 mph /  19.3 km/h 90 % 0 in /  0.0 mm
09:22 46.2 °F /  7.9 °C 43.7 °F /  6.5 °C 30.3 in /  1026.3 hPa NW 3 mph /  4.8 km/h 14 mph /  22.5 km/h 91 % 0 in /  0.0 mm
09:27 46.2 °F /  7.9 °C 43.7 °F /  6.5 °C 30.3 in /  1026.3 hPa NNE 7 mph /  11.3 km/h 14 mph /  22.5 km/h 91 % 0 in /  0.0 mm
09:32 46 °F /  7.8 °C 43.5 °F /  6.4 °C 30.3 in /  1026.3 hPa NNW 6 mph /  9.7 km/h 14 mph /  22.5 km/h 91 % 0 in /  0.0 mm
09:37 46 °F /  7.8 °C 43.5 °F /  6.4 °C 30.3 in /  1026.6 hPa North 7 mph /  11.3 km/h 11 mph /  17.7 km/h 91 % 0 in /  0.0 mm
09:42 46 °F /  7.8 °C 43.3 °F /  6.3 °C 30.3 in /  1026.6 hPa NNE 6 mph /  9.7 km/h 11 mph /  17.7 km/h 90 % 0 in /  0.0 mm
09:47 46.2 °F /  7.9 °C 43.5 °F /  6.4 °C 30.3 in /  1026.6 hPa NW 13 mph /  20.9 km/h 13 mph /  20.9 km/h 90 % 0 in /  0.0 mm
09:52 46.2 °F /  7.9 °C 43.5 °F /  6.4 °C 30.3 in /  1026.6 hPa NNW 8 mph /  12.9 km/h 13 mph /  20.9 km/h 90 % 0 in /  0.0 mm
09:57 46.2 °F /  7.9 °C 43.5 °F /  6.4 °C 30.3 in /  1026.6 hPa North 6 mph /  9.7 km/h 16 mph /  25.7 km/h 90 % 0 in /  0.0 mm
10:02 46.2 °F /  7.9 °C 43.5 °F /  6.4 °C 30.3 in /  1027.0 hPa North 6 mph /  9.7 km/h 16 mph /  25.7 km/h 90 % 0 in /  0.0 mm
10:07 46.2 °F /  7.9 °C 43.5 °F /  6.4 °C 30.3 in /  1027.0 hPa NE 5 mph /  8.0 km/h 15 mph /  24.1 km/h 90 % 0 in /  0.0 mm
10:12 46.6 °F /  8.1 °C 43.9 °F /  6.6 °C 30.3 in /  1027.0 hPa North 6 mph /  9.7 km/h 15 mph /  24.1 km/h 90 % 0 in /  0.0 mm
10:17 46.6 °F /  8.1 °C 43.5 °F /  6.4 °C 30.3 in /  1027.0 hPa NNW 8 mph /  12.9 km/h 18 mph /  29.0 km/h 89 % 0 in /  0.0 mm
10:22 46.8 °F /  8.2 °C 43.7 °F /  6.5 °C 30.3 in /  1027.0 hPa NNW 14 mph /  22.5 km/h 18 mph /  29.0 km/h 89 % 0 in /  0.0 mm
10:27 46.9 °F /  8.3 °C 43.9 °F /  6.6 °C 30.3 in /  1027.0 hPa North 5 mph /  8.0 km/h 18 mph /  29.0 km/h 89 % 0 in /  0.0 mm
10:32 46.9 °F /  8.3 °C 43.5 °F /  6.4 °C 30.3 in /  1027.0 hPa NNW 10 mph /  16.1 km/h 18 mph /  29.0 km/h 88 % 0 in /  0.0 mm
10:37 47.1 °F /  8.4 °C 43.7 °F /  6.5 °C 30.3 in /  1027.0 hPa NW 4 mph /  6.4 km/h 16 mph /  25.7 km/h 88 % 0 in /  0.0 mm
10:42 47.5 °F /  8.6 °C 44.1 °F /  6.7 °C 30.3 in /  1027.0 hPa North 8 mph /  12.9 km/h 18 mph /  29.0 km/h 88 % 0 in /  0.0 mm
10:47 47.7 °F /  8.7 °C 43.7 °F /  6.5 °C 30.3 in /  1027.0 hPa NNW 12 mph /  19.3 km/h 18 mph /  29.0 km/h 86 % 0 in /  0.0 mm
10:52 47.7 °F /  8.7 °C 44.1 °F /  6.7 °C 30.3 in /  1027.0 hPa NNW 5 mph /  8.0 km/h 15 mph /  24.1 km/h 87 % 0 in /  0.0 mm
10:57 47.8 °F /  8.8 °C 43.9 °F /  6.6 °C 30.3 in /  1027.3 hPa NNE 10 mph /  16.1 km/h 15 mph /  24.1 km/h 86 % 0 in /  0.0 mm
11:02 47.8 °F /  8.8 °C 43.9 °F /  6.6 °C 30.3 in /  1027.3 hPa NNE 11 mph /  17.7 km/h 15 mph /  24.1 km/h 86 % 0 in /  0.0 mm
11:07 48.4 °F /  9.1 °C 44.4 °F /  6.9 °C 30.3 in /  1027.3 hPa NNE 12 mph /  19.3 km/h 16 mph /  25.7 km/h 86 % 0 in /  0.0 mm
11:12 48.6 °F /  9.2 °C 43.9 °F /  6.6 °C 30.3 in /  1027.3 hPa NNW 5 mph /  8.0 km/h 16 mph /  25.7 km/h 84 % 0 in /  0.0 mm
11:17 48.7 °F /  9.3 °C 44.4 °F /  6.9 °C 30.3 in /  1027.3 hPa NE 6 mph /  9.7 km/h 16 mph /  25.7 km/h 85 % 0 in /  0.0 mm
11:22 48.7 °F /  9.3 °C 44.1 °F /  6.7 °C 30.3 in /  1027.3 hPa NNW 10 mph /  16.1 km/h 16 mph /  25.7 km/h 84 % 0 in /  0.0 mm
11:27 49.3 °F /  9.6 °C 45 °F /  7.2 °C 30.3 in /  1027.3 hPa NNW 11 mph /  17.7 km/h 15 mph /  24.1 km/h 85 % 0 in /  0.0 mm
11:32 49.5 °F /  9.7 °C 44.6 °F /  7.0 °C 30.3 in /  1027.3 hPa NNW 11 mph /  17.7 km/h 15 mph /  24.1 km/h 83 % 0 in /  0.0 mm
11:37 49.6 °F /  9.8 °C 44.8 °F /  7.1 °C 30.3 in /  1027.3 hPa North 7 mph /  11.3 km/h 15 mph /  24.1 km/h 83 % 0 in /  0.0 mm
11:42 50.2 °F /  10.1 °C 45.1 °F /  7.3 °C 30.4 in /  1027.7 hPa NNW 3 mph /  4.8 km/h 15 mph /  24.1 km/h 83 % 0 in /  0.0 mm
11:47 50.4 °F /  10.2 °C 44.8 °F /  7.1 °C 30.3 in /  1027.3 hPa North 6 mph /  9.7 km/h 15 mph /  24.1 km/h 81 % 0 in /  0.0 mm
11:52 50.5 °F /  10.3 °C 45.3 °F /  7.4 °C 30.4 in /  1027.7 hPa NW 6 mph /  9.7 km/h 16 mph /  25.7 km/h 82 % 0 in /  0.0 mm
11:57 50.9 °F /  10.5 °C 45.7 °F /  7.6 °C 30.3 in /  1027.3 hPa NE 10 mph /  16.1 km/h 16 mph /  25.7 km/h 82 % 0 in /  0.0 mm
12:02 51.3 °F /  10.7 °C 45.3 °F /  7.4 °C 30.3 in /  1027.3 hPa NE 8 mph /  12.9 km/h 16 mph /  25.7 km/h 80 % 0 in /  0.0 mm
12:07 51.6 °F /  10.9 °C 45.7 °F /  7.6 °C 30.3 in /  1027.3 hPa NNE 8 mph /  12.9 km/h 14 mph /  22.5 km/h 80 % 0 in /  0.0 mm
12:12 52 °F /  11.1 °C 45.3 °F /  7.4 °C 30.3 in /  1027.3 hPa NNE 7 mph /  11.3 km/h 14 mph /  22.5 km/h 78 % 0 in /  0.0 mm
12:17 52.3 °F /  11.3 °C 45.7 °F /  7.6 °C 30.3 in /  1027.3 hPa WNW 6 mph /  9.7 km/h 12 mph /  19.3 km/h 78 % 0 in /  0.0 mm
12:22 52.5 °F /  11.4 °C 45.9 °F /  7.7 °C 30.3 in /  1027.3 hPa NNE 3 mph /  4.8 km/h 13 mph /  20.9 km/h 78 % 0 in /  0.0 mm
12:27 52.7 °F /  11.5 °C 46 °F /  7.8 °C 30.3 in /  1027.0 hPa North 9 mph /  14.5 km/h 13 mph /  20.9 km/h 78 % 0 in /  0.0 mm
12:32 52.9 °F /  11.6 °C 46.6 °F /  8.1 °C 30.3 in /  1027.0 hPa NW 3 mph /  4.8 km/h 14 mph /  22.5 km/h 79 % 0 in /  0.0 mm
12:42 53.4 °F /  11.9 °C 46 °F /  7.8 °C 30.3 in /  1027.0 hPa NNW 6 mph /  9.7 km/h 14 mph /  22.5 km/h 76 % 0 in /  0.0 mm
12:47 53.2 °F /  11.8 °C 45.9 °F /  7.7 °C 30.3 in /  1027.0 hPa NW 7 mph /  11.3 km/h 13 mph /  20.9 km/h 76 % 0 in /  0.0 mm
12:52 54 °F /  12.2 °C 46.9 °F /  8.3 °C 30.3 in /  1027.0 hPa NW 6 mph /  9.7 km/h 13 mph /  20.9 km/h 77 % 0 in /  0.0 mm
12:57 54.3 °F /  12.4 °C 46.2 °F /  7.9 °C 30.3 in /  1027.0 hPa NNW 5 mph /  8.0 km/h 16 mph /  25.7 km/h 74 % 0 in /  0.0 mm
13:02 54.7 °F /  12.6 °C 46.6 °F /  8.1 °C 30.3 in /  1027.0 hPa North 5 mph /  8.0 km/h 16 mph /  25.7 km/h 74 % 0 in /  0.0 mm
13:07 54.9 °F /  12.7 °C 46.4 °F /  8.0 °C 30.3 in /  1027.0 hPa NNE 4 mph /  6.4 km/h 12 mph /  19.3 km/h 73 % 0 in /  0.0 mm
13:12 55 °F /  12.8 °C 46.9 °F /  8.3 °C 30.3 in /  1026.6 hPa NNE 13 mph /  20.9 km/h 13 mph /  20.9 km/h 74 % 0 in /  0.0 mm
13:17 55 °F /  12.8 °C 46.9 °F /  8.3 °C 30.3 in /  1026.6 hPa Calm   16 mph /  25.7 km/h 74 % 0 in /  0.0 mm
13:22 55.2 °F /  12.9 °C 46 °F /  7.8 °C 30.3 in /  1026.6 hPa NNW 9 mph /  14.5 km/h 16 mph /  25.7 km/h 71 % 0 in /  0.0 mm
13:27 55.2 °F /  12.9 °C 46.8 °F /  8.2 °C 30.3 in /  1026.6 hPa NE 9 mph /  14.5 km/h 16 mph /  25.7 km/h 73 % 0 in /  0.0 mm
13:32 55.9 °F /  13.3 °C 46.2 °F /  7.9 °C 30.3 in /  1026.6 hPa NNE 8 mph /  12.9 km/h 14 mph /  22.5 km/h 70 % 0 in /  0.0 mm
13:37 55.9 °F /  13.3 °C 46.2 °F /  7.9 °C 30.3 in /  1026.6 hPa NNW 3 mph /  4.8 km/h 15 mph /  24.1 km/h 70 % 0 in /  0.0 mm
13:42 56.1 °F /  13.4 °C 46 °F /  7.8 °C 30.3 in /  1026.6 hPa NE 14 mph /  22.5 km/h 15 mph /  24.1 km/h 69 % 0 in /  0.0 mm
13:47 56.1 °F /  13.4 °C 46.4 °F /  8.0 °C 30.3 in /  1026.3 hPa NE 8 mph /  12.9 km/h 17 mph /  27.4 km/h 70 % 0 in /  0.0 mm
13:52 56.5 °F /  13.6 °C 46 °F /  7.8 °C 30.3 in /  1026.3 hPa NNW 4 mph /  6.4 km/h 17 mph /  27.4 km/h 68 % 0 in /  0.0 mm
13:57 56.7 °F /  13.7 °C 46.6 °F /  8.1 °C 30.3 in /  1026.3 hPa NE 5 mph /  8.0 km/h 17 mph /  27.4 km/h 69 % 0 in /  0.0 mm
14:02 56.8 °F /  13.8 °C 46 °F /  7.8 °C 30.3 in /  1026.3 hPa North 10 mph /  16.1 km/h 16 mph /  25.7 km/h 67 % 0 in /  0.0 mm
14:07 57 °F /  13.9 °C 45.9 °F /  7.7 °C 30.3 in /  1026.6 hPa NNE 13 mph /  20.9 km/h 16 mph /  25.7 km/h 66 % 0 in /  0.0 mm
14:12 57.2 °F /  14.0 °C 46.4 °F /  8.0 °C 30.3 in /  1026.3 hPa North 16 mph /  25.7 km/h 16 mph /  25.7 km/h 67 % 0 in /  0.0 mm
14:17 57.2 °F /  14.0 °C 47.1 °F /  8.4 °C 30.3 in /  1026.6 hPa NNE 11 mph /  17.7 km/h 17 mph /  27.4 km/h 69 % 0 in /  0.0 mm
14:22 57.4 °F /  14.1 °C 45.7 °F /  7.6 °C 30.3 in /  1026.6 hPa North 13 mph /  20.9 km/h 17 mph /  27.4 km/h 65 % 0 in /  0.0 mm
14:27 57.4 °F /  14.1 °C 45.7 °F /  7.6 °C 30.3 in /  1026.3 hPa North 13 mph /  20.9 km/h 20 mph /  32.2 km/h 65 % 0 in /  0.0 mm
14:32 57.2 °F /  14.0 °C 45.5 °F /  7.5 °C 30.3 in /  1026.3 hPa North 9 mph /  14.5 km/h 20 mph /  32.2 km/h 65 % 0 in /  0.0 mm
14:37 57.4 °F /  14.1 °C 46 °F /  7.8 °C 30.3 in /  1026.3 hPa NE 6 mph /  9.7 km/h 20 mph /  32.2 km/h 66 % 0 in /  0.0 mm
14:42 57.6 °F /  14.2 °C 45.5 °F /  7.5 °C 30.3 in /  1026.3 hPa WNW 8 mph /  12.9 km/h 20 mph /  32.2 km/h 64 % 0 in /  0.0 mm
14:47 57.6 °F /  14.2 °C 44.6 °F /  7.0 °C 30.3 in /  1026.3 hPa NNW 12 mph /  19.3 km/h 21 mph /  33.8 km/h 62 % 0 in /  0.0 mm
14:52 57.7 °F /  14.3 °C 45.3 °F /  7.4 °C 30.3 in /  1026.3 hPa North 8 mph /  12.9 km/h 21 mph /  33.8 km/h 63 % 0 in /  0.0 mm
14:57 57.6 °F /  14.2 °C 45.1 °F /  7.3 °C 30.3 in /  1026.3 hPa NNW 10 mph /  16.1 km/h 21 mph /  33.8 km/h 63 % 0 in /  0.0 mm
15:02 57.6 °F /  14.2 °C 45.1 °F /  7.3 °C 30.3 in /  1026.3 hPa NNW 6 mph /  9.7 km/h 20 mph /  32.2 km/h 63 % 0 in /  0.0 mm
15:07 57.6 °F /  14.2 °C 44.6 °F /  7.0 °C 30.3 in /  1026.3 hPa North 11 mph /  17.7 km/h 20 mph /  32.2 km/h 62 % 0 in /  0.0 mm
15:12 58.3 °F /  14.6 °C 45.7 °F /  7.6 °C 30.3 in /  1026.3 hPa NNW 12 mph /  19.3 km/h 20 mph /  32.2 km/h 63 % 0 in /  0.0 mm
15:17 57.9 °F /  14.4 °C 45 °F /  7.2 °C 30.3 in /  1026.3 hPa NNE 10 mph /  16.1 km/h 20 mph /  32.2 km/h 62 % 0 in /  0.0 mm
15:27 57.9 °F /  14.4 °C 43.7 °F /  6.5 °C 30.3 in /  1026.3 hPa WNW 5 mph /  8.0 km/h 20 mph /  32.2 km/h 59 % 0 in /  0.0 mm
15:32 57.7 °F /  14.3 °C 44.4 °F /  6.9 °C 30.3 in /  1026.0 hPa North 14 mph /  22.5 km/h 21 mph /  33.8 km/h 61 % 0 in /  0.0 mm
15:37 57.7 °F /  14.3 °C 43.9 °F /  6.6 °C 30.3 in /  1026.3 hPa NNW 7 mph /  11.3 km/h 23 mph /  37.0 km/h 60 % 0 in /  0.0 mm
15:42 57.9 °F /  14.4 °C 45 °F /  7.2 °C 30.3 in /  1026.3 hPa NE 8 mph /  12.9 km/h 23 mph /  37.0 km/h 62 % 0 in /  0.0 mm
15:47 58.3 °F /  14.6 °C 44.1 °F /  6.7 °C 30.3 in /  1026.3 hPa NE 9 mph /  14.5 km/h 20 mph /  32.2 km/h 59 % 0 in /  0.0 mm
15:52 58.3 °F /  14.6 °C 43.5 °F /  6.4 °C 30.3 in /  1026.0 hPa NNE 16 mph /  25.7 km/h 19 mph /  30.6 km/h 58 % 0 in /  0.0 mm
15:57 58.3 °F /  14.6 °C 43.5 °F /  6.4 °C 30.3 in /  1026.3 hPa North 7 mph /  11.3 km/h 21 mph /  33.8 km/h 58 % 0 in /  0.0 mm
16:02 58.1 °F /  14.5 °C 43.3 °F /  6.3 °C 30.3 in /  1026.3 hPa North 11 mph /  17.7 km/h 21 mph /  33.8 km/h 58 % 0 in /  0.0 mm
16:07 58.3 °F /  14.6 °C 44.1 °F /  6.7 °C 30.3 in /  1026.3 hPa NNE 9 mph /  14.5 km/h 21 mph /  33.8 km/h 59 % 0 in /  0.0 mm
16:12 57.9 °F /  14.4 °C 43.7 °F /  6.5 °C 30.3 in /  1026.3 hPa WNW 8 mph /  12.9 km/h 22 mph /  35.4 km/h 59 % 0 in /  0.0 mm
16:17 58.3 °F /  14.6 °C 44.4 °F /  6.9 °C 30.3 in /  1026.3 hPa NNE 10 mph /  16.1 km/h 22 mph /  35.4 km/h 60 % 0 in /  0.0 mm
16:22 58.5 °F /  14.7 °C 44.2 °F /  6.8 °C 30.3 in /  1026.3 hPa NNW 14 mph /  22.5 km/h 22 mph /  35.4 km/h 59 % 0 in /  0.0 mm
16:27 58.6 °F /  14.8 °C 43 °F /  6.1 °C 30.3 in /  1026.0 hPa NNW 11 mph /  17.7 km/h 21 mph /  33.8 km/h 56 % 0 in /  0.0 mm
16:32 58.6 °F /  14.8 °C 43.5 °F /  6.4 °C 30.3 in /  1026.3 hPa NNW 10 mph /  16.1 km/h 21 mph /  33.8 km/h 57 % 0 in /  0.0 mm
16:37 58.5 °F /  14.7 °C 43.3 °F /  6.3 °C 30.3 in /  1026.0 hPa ENE 12 mph /  19.3 km/h 21 mph /  33.8 km/h 57 % 0 in /  0.0 mm
16:42 58.6 °F /  14.8 °C 43.9 °F /  6.6 °C 30.3 in /  1026.0 hPa North 4 mph /  6.4 km/h 20 mph /  32.2 km/h 58 % 0 in /  0.0 mm
16:47 58.8 °F /  14.9 °C 44.6 °F /  7.0 °C 30.3 in /  1026.0 hPa ESE 8 mph /  12.9 km/h 20 mph /  32.2 km/h 59 % 0 in /  0.0 mm
16:52 58.5 °F /  14.7 °C 44.2 °F /  6.8 °C 30.3 in /  1026.0 hPa NNW 4 mph /  6.4 km/h 19 mph /  30.6 km/h 59 % 0 in /  0.0 mm
16:57 58.5 °F /  14.7 °C 43.7 °F /  6.5 °C 30.3 in /  1026.0 hPa NNW 7 mph /  11.3 km/h 18 mph /  29.0 km/h 58 % 0 in /  0.0 mm
17:02 58.8 °F /  14.9 °C 44.1 °F /  6.7 °C 30.3 in /  1026.0 hPa NNE 9 mph /  14.5 km/h 18 mph /  29.0 km/h 58 % 0 in /  0.0 mm
17:07 58.5 °F /  14.7 °C 44.2 °F /  6.8 °C 30.3 in /  1026.0 hPa North 13 mph /  20.9 km/h 18 mph /  29.0 km/h 59 % 0 in /  0.0 mm
17:12 58.5 °F /  14.7 °C 44.6 °F /  7.0 °C 30.3 in /  1026.0 hPa NNW 9 mph /  14.5 km/h 17 mph /  27.4 km/h 60 % 0 in /  0.0 mm
17:17 58.5 °F /  14.7 °C 44.2 °F /  6.8 °C 30.3 in /  1026.0 hPa NNW 6 mph /  9.7 km/h 17 mph /  27.4 km/h 59 % 0 in /  0.0 mm
17:22 58.6 °F /  14.8 °C 43.9 °F /  6.6 °C 30.3 in /  1026.0 hPa NNE 7 mph /  11.3 km/h 17 mph /  27.4 km/h 58 % 0 in /  0.0 mm
17:27 58.5 °F /  14.7 °C 44.2 °F /  6.8 °C 30.3 in /  1026.0 hPa North 9 mph /  14.5 km/h 16 mph /  25.7 km/h 59 % 0 in /  0.0 mm
17:37 58.5 °F /  14.7 °C 44.2 °F /  6.8 °C 30.3 in /  1026.0 hPa NNW 5 mph /  8.0 km/h 18 mph /  29.0 km/h 59 % 0 in /  0.0 mm
17:42 58.3 °F /  14.6 °C 44.4 °F /  6.9 °C 30.3 in /  1026.0 hPa NW 9 mph /  14.5 km/h 18 mph /  29.0 km/h 60 % 0 in /  0.0 mm
17:47 58.5 °F /  14.7 °C 44.2 °F /  6.8 °C 30.3 in /  1026.0 hPa NE 12 mph /  19.3 km/h 18 mph /  29.0 km/h 59 % 0 in /  0.0 mm
17:52 58.6 °F /  14.8 °C 44.8 °F /  7.1 °C 30.3 in /  1026.0 hPa NE 8 mph /  12.9 km/h 17 mph /  27.4 km/h 60 % 0 in /  0.0 mm
17:57 58.6 °F /  14.8 °C 44.4 °F /  6.9 °C 30.3 in /  1026.0 hPa North 7 mph /  11.3 km/h 15 mph /  24.1 km/h 59 % 0 in /  0.0 mm
18:02 58.8 °F /  14.9 °C 44.6 °F /  7.0 °C 30.3 in /  1026.0 hPa NNW 6 mph /  9.7 km/h 13 mph /  20.9 km/h 59 % 0 in /  0.0 mm
18:07 58.6 °F /  14.8 °C 43.9 °F /  6.6 °C 30.3 in /  1026.0 hPa NNW 4 mph /  6.4 km/h 16 mph /  25.7 km/h 58 % 0 in /  0.0 mm
18:17 58.3 °F /  14.6 °C 43.2 °F /  6.2 °C 30.3 in /  1026.0 hPa ENE 12 mph /  19.3 km/h 16 mph /  25.7 km/h 57 % 0 in /  0.0 mm
18:22 57.9 °F /  14.4 °C 43.2 °F /  6.2 °C 30.3 in /  1026.0 hPa NNW 9 mph /  14.5 km/h 16 mph /  25.7 km/h 58 % 0 in /  0.0 mm
18:27 57.9 °F /  14.4 °C 43.2 °F /  6.2 °C 30.3 in /  1026.0 hPa North 5 mph /  8.0 km/h 17 mph /  27.4 km/h 58 % 0 in /  0.0 mm
18:32 57.7 °F /  14.3 °C 43.5 °F /  6.4 °C 30.3 in /  1026.0 hPa North 4 mph /  6.4 km/h 17 mph /  27.4 km/h 59 % 0 in /  0.0 mm
18:42 57.6 °F /  14.2 °C 43 °F /  6.1 °C 30.3 in /  1026.0 hPa NNE 7 mph /  11.3 km/h 17 mph /  27.4 km/h 58 % 0 in /  0.0 mm
18:47 57.6 °F /  14.2 °C 43 °F /  6.1 °C 30.3 in /  1026.0 hPa North 11 mph /  17.7 km/h 17 mph /  27.4 km/h 58 % 0 in /  0.0 mm
18:52 57.6 °F /  14.2 °C 42.4 °F /  5.8 °C 30.3 in /  1026.0 hPa North 11 mph /  17.7 km/h 18 mph /  29.0 km/h 57 % 0 in /  0.0 mm
18:57 57.4 °F /  14.1 °C 43.2 °F /  6.2 °C 30.3 in /  1026.0 hPa NE 6 mph /  9.7 km/h 18 mph /  29.0 km/h 59 % 0 in /  0.0 mm
19:02 57.4 °F /  14.1 °C 43.2 °F /  6.2 °C 30.3 in /  1026.0 hPa NNE 9 mph /  14.5 km/h 18 mph /  29.0 km/h 59 % 0 in /  0.0 mm
19:07 57.4 °F /  14.1 °C 43.7 °F /  6.5 °C 30.3 in /  1026.0 hPa NNW 6 mph /  9.7 km/h 17 mph /  27.4 km/h 60 % 0 in /  0.0 mm
19:12 57 °F /  13.9 °C 43.7 °F /  6.5 °C 30.3 in /  1026.0 hPa ENE 5 mph /  8.0 km/h 15 mph /  24.1 km/h 61 % 0 in /  0.0 mm
19:17 56.8 °F /  13.8 °C 43.9 °F /  6.6 °C 30.3 in /  1026.0 hPa North 4 mph /  6.4 km/h 14 mph /  22.5 km/h 62 % 0 in /  0.0 mm
19:22 56.7 °F /  13.7 °C 43.7 °F /  6.5 °C 30.3 in /  1026.0 hPa NNE 9 mph /  14.5 km/h 14 mph /  22.5 km/h 62 % 0 in /  0.0 mm
19:27 56.5 °F /  13.6 °C 44.1 °F /  6.7 °C 30.3 in /  1026.0 hPa NNE 5 mph /  8.0 km/h 13 mph /  20.9 km/h 63 % 0 in /  0.0 mm
19:32 56.5 °F /  13.6 °C 44.4 °F /  6.9 °C 30.3 in /  1026.0 hPa NNW 5 mph /  8.0 km/h 13 mph /  20.9 km/h 64 % 0 in /  0.0 mm
19:37 56.1 °F /  13.4 °C 43.3 °F /  6.3 °C 30.3 in /  1026.0 hPa North 5 mph /  8.0 km/h 15 mph /  24.1 km/h 62 % 0 in /  0.0 mm
19:42 56.1 °F /  13.4 °C 44.1 °F /  6.7 °C 30.3 in /  1026.0 hPa NNE 3 mph /  4.8 km/h 15 mph /  24.1 km/h 64 % 0 in /  0.0 mm
19:47 55.9 °F /  13.3 °C 43.9 °F /  6.6 °C 30.3 in /  1026.0 hPa NNE 4 mph /  6.4 km/h 15 mph /  24.1 km/h 64 % 0 in /  0.0 mm
19:52 55.9 °F /  13.3 °C 43.9 °F /  6.6 °C 30.3 in /  1026.3 hPa NNW 9 mph /  14.5 km/h 12 mph /  19.3 km/h 64 % 0 in /  0.0 mm
19:57 55.8 °F /  13.2 °C 44.2 °F /  6.8 °C 30.3 in /  1026.0 hPa NNE 4 mph /  6.4 km/h 12 mph /  19.3 km/h 65 % 0 in /  0.0 mm
20:02 55.6 °F /  13.1 °C 44.1 °F /  6.7 °C 30.3 in /  1026.3 hPa NNW 5 mph /  8.0 km/h 12 mph /  19.3 km/h 65 % 0 in /  0.0 mm
20:07 55.4 °F /  13.0 °C 44.2 °F /  6.8 °C 30.3 in /  1026.3 hPa NNW 3 mph /  4.8 km/h 10 mph /  16.1 km/h 66 % 0 in /  0.0 mm
20:12 55.2 °F /  12.9 °C 44.1 °F /  6.7 °C 30.3 in /  1026.3 hPa NNE 4 mph /  6.4 km/h 9 mph /  14.5 km/h 66 % 0 in /  0.0 mm
20:17 55 °F /  12.8 °C 43.9 °F /  6.6 °C 30.3 in /  1026.3 hPa North 4 mph /  6.4 km/h 9 mph /  14.5 km/h 66 % 0 in /  0.0 mm
20:22 54.9 °F /  12.7 °C 44.1 °F /  6.7 °C 30.3 in /  1026.3 hPa NW 3 mph /  4.8 km/h 10 mph /  16.1 km/h 67 % 0 in /  0.0 mm
20:27 54.7 °F /  12.6 °C 43.9 °F /  6.6 °C 30.3 in /  1026.3 hPa North 6 mph /  9.7 km/h 10 mph /  16.1 km/h 67 % 0 in /  0.0 mm
20:32 54.3 °F /  12.4 °C 44.1 °F /  6.7 °C 30.3 in /  1026.3 hPa North 9 mph /  14.5 km/h 9 mph /  14.5 km/h 68 % 0 in /  0.0 mm
20:37 54.1 °F /  12.3 °C 43.9 °F /  6.6 °C 30.3 in /  1026.3 hPa NNW 4 mph /  6.4 km/h 12 mph /  19.3 km/h 68 % 0 in /  0.0 mm
20:42 54 °F /  12.2 °C 44.1 °F /  6.7 °C 30.3 in /  1026.3 hPa NNE 6 mph /  9.7 km/h 12 mph /  19.3 km/h 69 % 0 in /  0.0 mm
20:47 53.8 °F /  12.1 °C 44.2 °F /  6.8 °C 30.3 in /  1026.3 hPa North 5 mph /  8.0 km/h 12 mph /  19.3 km/h 70 % 0 in /  0.0 mm
20:52 53.8 °F /  12.1 °C 44.2 °F /  6.8 °C 30.3 in /  1026.3 hPa NNW 3 mph /  4.8 km/h 11 mph /  17.7 km/h 70 % 0 in /  0.0 mm
20:57 53.6 °F /  12.0 °C 44.4 °F /  6.9 °C 30.3 in /  1026.3 hPa NNE 7 mph /  11.3 km/h 11 mph /  17.7 km/h 71 % 0 in /  0.0 mm
21:02 53.4 °F /  11.9 °C 44.2 °F /  6.8 °C 30.3 in /  1026.6 hPa NNW 5 mph /  8.0 km/h 10 mph /  16.1 km/h 71 % 0 in /  0.0 mm
21:07 53.2 °F /  11.8 °C 44.4 °F /  6.9 °C 30.3 in /  1026.6 hPa NNE 8 mph /  12.9 km/h 10 mph /  16.1 km/h 72 % 0 in /  0.0 mm
21:12 53.1 °F /  11.7 °C 44.2 °F /  6.8 °C 30.3 in /  1026.6 hPa WNW 4 mph /  6.4 km/h 12 mph /  19.3 km/h 72 % 0 in /  0.0 mm
21:17 52.9 °F /  11.6 °C 44.4 °F /  6.9 °C 30.3 in /  1026.6 hPa NNW 5 mph /  8.0 km/h 12 mph /  19.3 km/h 73 % 0 in /  0.0 mm
21:22 52.7 °F /  11.5 °C 44.6 °F /  7.0 °C 30.3 in /  1026.6 hPa North 9 mph /  14.5 km/h 12 mph /  19.3 km/h 74 % 0 in /  0.0 mm
21:27 52.5 °F /  11.4 °C 44.8 °F /  7.1 °C 30.3 in /  1026.6 hPa NNE 4 mph /  6.4 km/h 15 mph /  24.1 km/h 75 % 0 in /  0.0 mm
21:32 52.3 °F /  11.3 °C 45 °F /  7.2 °C 30.3 in /  1026.6 hPa NE 11 mph /  17.7 km/h 15 mph /  24.1 km/h 76 % 0 in /  0.0 mm
21:37 52.2 °F /  11.2 °C 44.8 °F /  7.1 °C 30.3 in /  1027.0 hPa North 6 mph /  9.7 km/h 15 mph /  24.1 km/h 76 % 0 in /  0.0 mm
21:42 52.2 °F /  11.2 °C 44.8 °F /  7.1 °C 30.3 in /  1027.0 hPa North 2 mph /  3.2 km/h 13 mph /  20.9 km/h 76 % 0 in /  0.0 mm
21:47 51.8 °F /  11.0 °C 44.8 °F /  7.1 °C 30.3 in /  1027.0 hPa WNW 4 mph /  6.4 km/h 13 mph /  20.9 km/h 77 % 0 in /  0.0 mm
21:52 51.6 °F /  10.9 °C 45 °F /  7.2 °C 30.3 in /  1027.0 hPa North 6 mph /  9.7 km/h 10 mph /  16.1 km/h 78 % 0 in /  0.0 mm
22:02 51.3 °F /  10.7 °C 44.6 °F /  7.0 °C 30.3 in /  1027.3 hPa NNW 7 mph /  11.3 km/h 10 mph /  16.1 km/h 78 % 0 in /  0.0 mm
22:12 51.1 °F /  10.6 °C 44.8 °F /  7.1 °C 30.3 in /  1027.3 hPa NNW 7 mph /  11.3 km/h 9 mph /  14.5 km/h 79 % 0 in /  0.0 mm
22:27 50.4 °F /  10.2 °C 44.1 °F /  6.7 °C 30.3 in /  1027.3 hPa NE 2 mph /  3.2 km/h 10 mph /  16.1 km/h 79 % 0 in /  0.0 mm
22:32 50.2 °F /  10.1 °C 43.9 °F /  6.6 °C 30.3 in /  1027.3 hPa NNW 4 mph /  6.4 km/h 8 mph /  12.9 km/h 79 % 0 in /  0.0 mm
22:37 50.2 °F /  10.1 °C 43.9 °F /  6.6 °C 30.3 in /  1027.3 hPa NE 5 mph /  8.0 km/h 9 mph /  14.5 km/h 79 % 0 in /  0.0 mm
22:42 49.8 °F /  9.9 °C 43.5 °F /  6.4 °C 30.3 in /  1027.3 hPa NNW 2 mph /  3.2 km/h 9 mph /  14.5 km/h 79 % 0 in /  0.0 mm
22:47 49.6 °F /  9.8 °C 43.7 °F /  6.5 °C 30.3 in /  1027.3 hPa NNE 3 mph /  4.8 km/h 9 mph /  14.5 km/h 80 % 0 in /  0.0 mm
22:52 49.5 °F /  9.7 °C 43.5 °F /  6.4 °C 30.3 in /  1027.3 hPa NNW 2 mph /  3.2 km/h 7 mph /  11.3 km/h 80 % 0 in /  0.0 mm
22:57 49.3 °F /  9.6 °C 43.3 °F /  6.3 °C 30.3 in /  1027.3 hPa NE 2 mph /  3.2 km/h 8 mph /  12.9 km/h 80 % 0 in /  0.0 mm
23:02 49.3 °F /  9.6 °C 43.3 °F /  6.3 °C 30.3 in /  1027.3 hPa North 1 mph /  1.6 km/h 8 mph /  12.9 km/h 80 % 0 in /  0.0 mm
23:07 48.9 °F /  9.4 °C 43.3 °F /  6.3 °C 30.3 in /  1027.3 hPa NNW 2 mph /  3.2 km/h 7 mph /  11.3 km/h 81 % 0 in /  0.0 mm
23:12 48.7 °F /  9.3 °C 43.2 °F /  6.2 °C 30.3 in /  1027.3 hPa NE 2 mph /  3.2 km/h 6 mph /  9.7 km/h 81 % 0 in /  0.0 mm
23:17 48.7 °F /  9.3 °C 43.2 °F /  6.2 °C 30.3 in /  1027.3 hPa NNE 5 mph /  8.0 km/h 5 mph /  8.0 km/h 81 % 0 in /  0.0 mm
23:22 48.6 °F /  9.2 °C 43 °F /  6.1 °C 30.3 in /  1027.3 hPa NNE 3 mph /  4.8 km/h 9 mph /  14.5 km/h 81 % 0 in /  0.0 mm
23:32 48.9 °F /  9.4 °C 43 °F /  6.1 °C 30.3 in /  1027.3 hPa NE 3 mph /  4.8 km/h 8 mph /  12.9 km/h 80 % 0 in /  0.0 mm
23:37 48.7 °F /  9.3 °C 42.4 °F /  5.8 °C 30.3 in /  1027.3 hPa NNE 4 mph /  6.4 km/h 9 mph /  14.5 km/h 79 % 0 in /  0.0 mm
23:42 48.6 °F /  9.2 °C 42.6 °F /  5.9 °C 30.3 in /  1027.3 hPa NNW 2 mph /  3.2 km/h 9 mph /  14.5 km/h 80 % 0 in /  0.0 mm
23:47 48.4 °F /  9.1 °C 42.3 °F /  5.7 °C 30.3 in /  1027.3 hPa NE 3 mph /  4.8 km/h 9 mph /  14.5 km/h 79 % 0 in /  0.0 mm
23:57 48.2 °F /  9.0 °C 42.1 °F /  5.6 °C 30.3 in /  1027.3 hPa NNW 4 mph /  6.4 km/h 8 mph /  12.9 km/h 79 % 0 in /  0.0 mm
Meteo18
Compliments of Weather Underground - 4 mb

Script developed by  Jim McMurry - jmcmurry@mwt.net Adapted for the template by  Wim van der Kuil - Leuven-Template.eu

You find our weather info also at:

European Weather Network

Weather Underground

Equipment we use:

Weather-station
Davis Vue

Weather-program
Meteohub

Weather-server
Raspberry PI 2 B+

Provider
1 and 1

Davis Vue

Meteohub

Raspberry PI 2 B+

1 and 1